Time;durP1;ratioP1;P1;durP2;ratioP2;P2;SDS_P1;SDS_P2;PMS_P1;PMS_P2;Temp;Humidity;BMP_temperature;BMP_pressure;BME280_temperature;BME280_humidity;BME280_pressure;Samples;Min_cycle;Max_cycle;Signal;HPM_P1;HPM_P2
2021/07/22 00:01:52;;;;;;;;;;;19.40;99.90;;;;;;6330809;28;19936;-73
2021/07/22 00:04:54;;;;;;;;;;;19.30;99.90;;;;;;6339189;28;20016;-73
2021/07/22 00:08:02;;;;;;;;;;;19.30;99.90;;;;;;6314984;28;19977;-73
2021/07/22 00:11:07;;;;;;;;;;;19.30;99.90;;;;;;6330880;28;19977;-73
2021/07/22 00:14:09;;;;;;;;;;;19.20;99.90;;;;;;6335746;28;20376;-73
2021/07/22 00:17:10;;;;;;;;;;;19.20;99.90;;;;;;6323111;28;19981;-73
2021/07/22 00:20:13;;;;;;;;;;;19.20;99.90;;;;;;6328887;28;19976;-73
2021/07/22 00:23:14;;;;;;;;;;;19.10;99.90;;;;;;6321092;28;20447;-73
2021/07/22 00:26:16;;;;;;;;;;;19.10;99.90;;;;;;6331244;28;20014;-73
2021/07/22 00:29:18;;;;;;;;;;;19.10;99.90;;;;;;6333367;28;19965;-73
2021/07/22 00:32:19;;;;;;;;;;;19.00;99.90;;;;;;6328630;28;19980;-73
2021/07/22 00:35:21;;;;;;;;;;;19.00;99.90;;;;;;6343834;28;20053;-73
2021/07/22 00:38:23;;;;;;;;;;;19.00;99.90;;;;;;6314840;28;19981;-73
2021/07/22 00:41:24;;;;;;;;;;;18.90;99.90;;;;;;6332074;28;19976;-73
2021/07/22 00:44:26;;;;;;;;;;;18.90;99.90;;;;;;6318559;28;19985;-73
2021/07/22 00:47:28;;;;;;;;;;;18.80;99.90;;;;;;6333956;28;19972;-72
2021/07/22 00:50:30;;;;;;;;;;;18.80;99.90;;;;;;6324359;28;20042;-73
2021/07/22 00:53:32;;;;;;;;;;;18.80;99.90;;;;;;6336089;28;19973;-73
2021/07/22 00:56:34;;;;;;;;;;;18.70;99.90;;;;;;6330243;28;19980;-74
2021/07/22 00:59:36;;;;;;;;;;;18.70;99.90;;;;;;6336824;28;19981;-73
2021/07/22 01:02:37;;;;;;;;;;;18.70;99.90;;;;;;6331407;28;19974;-73
2021/07/22 01:05:39;;;;;;;;;;;18.70;99.90;;;;;;6331546;28;20416;-73
2021/07/22 01:08:41;;;;;;;;;;;18.60;99.90;;;;;;6332711;28;19977;-73
2021/07/22 01:11:42;;;;;;;;;;;18.60;99.90;;;;;;6345168;28;19970;-73
2021/07/22 01:14:46;;;;;;;;;;;18.60;99.90;;;;;;6321022;28;20033;-73
2021/07/22 01:17:49;;;;;;;;;;;18.50;99.90;;;;;;6334070;28;20438;-73
2021/07/22 01:20:50;;;;;;;;;;;18.50;99.90;;;;;;6342488;28;19960;-73
2021/07/22 01:23:52;;;;;;;;;;;18.50;99.90;;;;;;6320529;28;20430;-73
2021/07/22 01:26:54;;;;;;;;;;;18.50;99.90;;;;;;6314175;28;19987;-73
2021/07/22 01:29:55;;;;;;;;;;;18.50;99.90;;;;;;6334065;28;19976;-72
2021/07/22 01:32:57;;;;;;;;;;;18.50;99.90;;;;;;6335538;28;19984;-73
2021/07/22 01:35:59;;;;;;;;;;;18.40;99.90;;;;;;6333815;28;19979;-73
2021/07/22 01:39:02;;;;;;;;;;;18.40;99.90;;;;;;6336448;28;19989;-73
2021/07/22 01:42:04;;;;;;;;;;;18.40;99.90;;;;;;6332218;28;19978;-73
2021/07/22 01:45:06;;;;;;;;;;;18.30;99.90;;;;;;6335976;28;20335;-73
2021/07/22 01:48:08;;;;;;;;;;;18.30;99.90;;;;;;6317335;28;19975;-73
2021/07/22 01:51:09;;;;;;;;;;;18.30;99.90;;;;;;6321694;28;19981;-73
2021/07/22 01:54:11;;;;;;;;;;;18.20;99.90;;;;;;6338731;28;20314;-73
2021/07/22 01:57:13;;;;;;;;;;;18.20;99.90;;;;;;6331465;28;19983;-73
2021/07/22 02:00:15;;;;;;;;;;;18.20;99.90;;;;;;6326694;28;19969;-73
2021/07/22 02:03:16;;;;;;;;;;;18.20;99.90;;;;;;6334735;28;20025;-73
2021/07/22 02:06:18;;;;;;;;;;;18.10;99.90;;;;;;6345116;28;19968;-73
2021/07/22 02:09:20;;;;;;;;;;;18.10;99.90;;;;;;6320870;28;19978;-73
2021/07/22 02:12:21;;;;;;;;;;;18.10;99.90;;;;;;6318407;28;19986;-73
2021/07/22 02:15:23;;;;;;;;;;;18.10;99.90;;;;;;6335738;28;19990;-73
2021/07/22 02:18:25;;;;;;;;;;;18.00;99.90;;;;;;6335206;28;19997;-73
2021/07/22 02:21:27;;;;;;;;;;;18.00;99.90;;;;;;6340208;28;19970;-73
2021/07/22 02:24:28;;;;;;;;;;;18.00;99.90;;;;;;6334532;28;19974;-73
2021/07/22 02:27:35;;;;;;;;;;;18.00;99.90;;;;;;6320114;28;19985;-73
2021/07/22 02:30:36;;;;;;;;;;;18.00;99.90;;;;;;6333631;28;19972;-73
2021/07/22 02:33:38;;;;;;;;;;;18.00;99.90;;;;;;6331484;28;19993;-73
2021/07/22 02:36:40;;;;;;;;;;;18.00;99.90;;;;;;6331165;28;20034;-73
2021/07/22 02:39:41;;;;;;;;;;;18.00;99.90;;;;;;6327712;28;19975;-73
2021/07/22 02:42:43;;;;;;;;;;;18.00;99.90;;;;;;6332254;28;19980;-74
2021/07/22 02:45:45;;;;;;;;;;;17.90;99.90;;;;;;6334810;28;19977;-73
2021/07/22 02:48:46;;;;;;;;;;;17.80;99.90;;;;;;6336187;28;22382;-73
2021/07/22 02:51:48;;;;;;;;;;;17.70;99.90;;;;;;6337108;28;19985;-73
2021/07/22 02:54:49;;;;;;;;;;;17.70;99.90;;;;;;6329596;28;20555;-73
2021/07/22 02:57:51;;;;;;;;;;;17.60;99.90;;;;;;6340373;28;20005;-73
2021/07/22 03:00:53;;;;;;;;;;;17.50;99.90;;;;;;6334127;28;19977;-73
2021/07/22 03:03:56;;;;;;;;;;;17.50;99.90;;;;;;6325904;28;19977;-73
2021/07/22 03:06:58;;;;;;;;;;;17.50;99.90;;;;;;6332316;28;19987;-73
2021/07/22 03:10:00;;;;;;;;;;;17.50;99.90;;;;;;6338890;28;19985;-73
2021/07/22 03:13:03;;;;;;;;;;;17.40;99.90;;;;;;6312515;28;20469;-73
2021/07/22 03:16:06;;;;;;;;;;;17.40;99.90;;;;;;6314827;28;20328;-73
2021/07/22 03:19:08;;;;;;;;;;;17.40;99.90;;;;;;6330939;28;20360;-73
2021/07/22 03:22:09;;;;;;;;;;;17.40;99.90;;;;;;6339120;28;19974;-73
2021/07/22 03:25:11;;;;;;;;;;;17.30;99.90;;;;;;6340354;28;19984;-73
2021/07/22 03:28:13;;;;;;;;;;;17.40;99.90;;;;;;6323339;28;20133;-73
2021/07/22 03:31:15;;;;;;;;;;;17.40;99.90;;;;;;6322435;28;19979;-74
2021/07/22 03:34:18;;;;;;;;;;;17.40;99.90;;;;;;6331674;28;19976;-73
2021/07/22 03:37:19;;;;;;;;;;;17.40;99.90;;;;;;6337331;28;19998;-73
2021/07/22 03:40:21;;;;;;;;;;;17.30;99.90;;;;;;6338832;28;19991;-73
2021/07/22 03:43:23;;;;;;;;;;;17.30;99.90;;;;;;6336133;28;20401;-73
2021/07/22 03:46:25;;;;;;;;;;;17.30;99.90;;;;;;6329643;28;20093;-73
2021/07/22 03:49:27;;;;;;;;;;;17.30;99.90;;;;;;6326193;28;19970;-73
2021/07/22 03:52:29;;;;;;;;;;;17.20;99.90;;;;;;6325855;28;19980;-73
2021/07/22 03:55:31;;;;;;;;;;;17.20;99.90;;;;;;6337938;28;19969;-73
2021/07/22 03:58:32;;;;;;;;;;;17.20;99.90;;;;;;6336322;28;19994;-73
2021/07/22 04:01:34;;;;;;;;;;;17.20;99.90;;;;;;6315605;28;20314;-73
2021/07/22 04:04:36;;;;;;;;;;;17.20;99.90;;;;;;6312708;28;19975;-73
2021/07/22 04:07:37;;;;;;;;;;;17.20;99.90;;;;;;6331652;28;20518;-73
2021/07/22 04:10:39;;;;;;;;;;;17.20;99.90;;;;;;6334444;28;19978;-73
2021/07/22 04:13:41;;;;;;;;;;;17.20;99.90;;;;;;6323766;28;20051;-73
2021/07/22 04:16:42;;;;;;;;;;;17.20;99.90;;;;;;6322607;28;19978;-73
2021/07/22 04:19:44;;;;;;;;;;;17.10;99.90;;;;;;6326703;28;19989;-73
2021/07/22 04:22:46;;;;;;;;;;;17.10;99.90;;;;;;6329274;28;20429;-73
2021/07/22 04:25:48;;;;;;;;;;;17.10;99.90;;;;;;6338559;28;19975;-73
2021/07/22 04:28:52;;;;;;;;;;;17.20;99.90;;;;;;6315485;28;20038;-73
2021/07/22 04:31:54;;;;;;;;;;;17.20;99.90;;;;;;6333660;28;19985;-73
2021/07/22 04:34:56;;;;;;;;;;;17.20;99.90;;;;;;6327547;28;19982;-73
2021/07/22 04:37:58;;;;;;;;;;;17.20;99.90;;;;;;6333246;28;19982;-74
2021/07/22 04:41:04;;;;;;;;;;;17.30;99.90;;;;;;6332444;28;20443;-73
2021/07/22 04:44:05;;;;;;;;;;;17.40;99.90;;;;;;6335630;28;20403;-73
2021/07/22 04:47:07;;;;;;;;;;;17.40;99.90;;;;;;6332317;28;20042;-73
2021/07/22 04:50:09;;;;;;;;;;;17.40;99.90;;;;;;6331006;28;19974;-73
2021/07/22 04:53:11;;;;;;;;;;;17.50;99.90;;;;;;6326674;28;19981;-73
2021/07/22 04:56:12;;;;;;;;;;;17.50;99.90;;;;;;6333468;28;19980;-73
2021/07/22 04:59:14;;;;;;;;;;;17.50;99.90;;;;;;6322737;28;19995;-73
2021/07/22 05:02:16;;;;;;;;;;;17.60;99.90;;;;;;6329832;28;20060;-73
2021/07/22 05:05:17;;;;;;;;;;;17.70;99.90;;;;;;6336442;28;19981;-73
2021/07/22 05:08:19;;;;;;;;;;;17.80;99.90;;;;;;6317064;28;19969;-73
2021/07/22 05:11:21;;;;;;;;;;;17.80;99.90;;;;;;6334595;28;20018;-73
2021/07/22 05:14:22;;;;;;;;;;;17.90;99.90;;;;;;6322838;28;19924;-73
2021/07/22 05:17:24;;;;;;;;;;;18.00;99.90;;;;;;6327112;28;20059;-73
2021/07/22 05:20:26;;;;;;;;;;;18.10;99.90;;;;;;6330997;28;20484;-73
2021/07/22 05:23:27;;;;;;;;;;;18.20;99.90;;;;;;6322424;28;19969;-73
2021/07/22 05:26:29;;;;;;;;;;;18.30;99.90;;;;;;6333640;28;20064;-73
2021/07/22 05:29:30;;;;;;;;;;;18.40;99.90;;;;;;6330260;28;20371;-73
2021/07/22 05:32:33;;;;;;;;;;;18.40;99.90;;;;;;6338752;28;19972;-73
2021/07/22 05:35:35;;;;;;;;;;;18.50;99.90;;;;;;6336148;28;19951;-73
2021/07/22 05:38:37;;;;;;;;;;;18.50;99.90;;;;;;6310717;28;19993;-73
2021/07/22 05:41:39;;;;;;;;;;;18.60;99.90;;;;;;6329342;28;20443;-73
2021/07/22 05:44:40;;;;;;;;;;;18.70;99.90;;;;;;6340211;28;20382;-73
2021/07/22 05:47:42;;;;;;;;;;;18.80;99.90;;;;;;6332556;28;20485;-73
2021/07/22 05:50:44;;;;;;;;;;;18.80;99.90;;;;;;6337151;28;19973;-73
2021/07/22 05:53:45;;;;;;;;;;;18.90;99.90;;;;;;6315749;28;20040;-73
2021/07/22 05:56:47;;;;;;;;;;;19.00;99.90;;;;;;6339659;28;19967;-73
2021/07/22 05:59:49;;;;;;;;;;;19.10;99.90;;;;;;6331225;28;19995;-73
2021/07/22 06:02:50;;;;;;;;;;;19.20;99.90;;;;;;6338648;28;20439;-73
2021/07/22 06:05:52;;;;;;;;;;;19.20;99.90;;;;;;6315224;28;20402;-73
2021/07/22 06:08:54;;;;;;;;;;;19.30;99.90;;;;;;6336562;28;19968;-74
2021/07/22 06:11:56;;;;;;;;;;;19.40;99.90;;;;;;6340919;28;19978;-73
2021/07/22 06:14:57;;;;;;;;;;;19.50;99.90;;;;;;6336488;28;19954;-73
2021/07/22 06:17:59;;;;;;;;;;;19.50;99.90;;;;;;6338115;28;19989;-73
2021/07/22 06:21:01;;;;;;;;;;;19.50;99.90;;;;;;6337172;28;19978;-74
2021/07/22 06:24:03;;;;;;;;;;;19.60;99.90;;;;;;6337884;28;19977;-73
2021/07/22 06:27:11;;;;;;;;;;;19.60;99.90;;;;;;6336586;28;20646;-73
2021/07/22 06:30:13;;;;;;;;;;;19.70;99.90;;;;;;6332578;28;19971;-73
2021/07/22 06:33:14;;;;;;;;;;;19.70;99.90;;;;;;6320084;28;19967;-74
2021/07/22 06:36:16;;;;;;;;;;;19.80;99.90;;;;;;6334315;28;19970;-74
2021/07/22 06:39:18;;;;;;;;;;;19.80;99.90;;;;;;6338833;27;20059;-73
2021/07/22 06:42:20;;;;;;;;;;;19.90;99.90;;;;;;6333764;28;20402;-74
2021/07/22 06:45:21;;;;;;;;;;;19.90;99.90;;;;;;6343323;28;19972;-74
2021/07/22 06:48:23;;;;;;;;;;;20.00;99.90;;;;;;6316779;28;20024;-74
2021/07/22 06:51:24;;;;;;;;;;;20.00;99.90;;;;;;6309065;28;19973;-74
2021/07/22 06:54:26;;;;;;;;;;;20.10;99.90;;;;;;6345958;28;20377;-73
2021/07/22 06:57:28;;;;;;;;;;;20.10;99.90;;;;;;6343419;28;20408;-73
2021/07/22 07:00:30;;;;;;;;;;;20.10;99.90;;;;;;6326079;28;19993;-73
2021/07/22 07:03:31;;;;;;;;;;;20.20;99.90;;;;;;6340346;28;20363;-73
2021/07/22 07:06:34;;;;;;;;;;;20.20;99.90;;;;;;6330876;28;20023;-74
2021/07/22 07:09:35;;;;;;;;;;;20.30;99.90;;;;;;6340997;28;20055;-73
2021/07/22 07:12:37;;;;;;;;;;;20.30;99.90;;;;;;6339739;28;20404;-74
2021/07/22 07:15:39;;;;;;;;;;;20.40;99.90;;;;;;6334775;28;20444;-74
2021/07/22 07:18:41;;;;;;;;;;;20.40;99.90;;;;;;6338064;28;19999;-73
2021/07/22 07:21:45;;;;;;;;;;;20.50;99.90;;;;;;6342907;28;19972;-74
2021/07/22 07:24:46;;;;;;;;;;;20.60;99.90;;;;;;6338750;28;20002;-73
2021/07/22 07:27:48;;;;;;;;;;;20.70;99.90;;;;;;6336577;28;19974;-74
2021/07/22 07:30:52;;;;;;;;;;;20.80;99.90;;;;;;6333971;28;22539;-73
2021/07/22 07:33:54;;;;;;;;;;;20.80;99.90;;;;;;6325928;28;20412;-74
2021/07/22 07:36:56;;;;;;;;;;;20.90;99.90;;;;;;6314791;28;20076;-74
2021/07/22 07:39:58;;;;;;;;;;;21.10;99.90;;;;;;6328703;28;20348;-74
2021/07/22 07:43:00;;;;;;;;;;;21.20;99.90;;;;;;6327488;28;19978;-73
2021/07/22 07:46:01;;;;;;;;;;;21.10;99.90;;;;;;6327646;28;19973;-73
2021/07/22 07:49:04;;;;;;;;;;;21.00;99.90;;;;;;6332917;28;19964;-73
2021/07/22 07:52:05;;;;;;;;;;;20.90;99.90;;;;;;6335274;28;19969;-73
2021/07/22 07:55:09;;;;;;;;;;;20.80;99.90;;;;;;6320204;28;19974;-73
2021/07/22 07:58:11;;;;;;;;;;;20.70;99.90;;;;;;6332252;28;20001;-73
2021/07/22 08:01:16;;;;;;;;;;;20.50;99.90;;;;;;6334899;28;20406;-73
2021/07/22 08:04:18;;;;;;;;;;;20.50;99.90;;;;;;6330132;28;20070;-74
2021/07/22 08:07:20;;;;;;;;;;;20.40;99.90;;;;;;6316627;28;19978;-73
2021/07/22 08:10:21;;;;;;;;;;;20.30;99.90;;;;;;6339254;28;19992;-73
2021/07/22 08:13:23;;;;;;;;;;;20.30;99.90;;;;;;6333331;28;20448;-74
2021/07/22 08:16:25;;;;;;;;;;;20.40;99.90;;;;;;6329268;28;20424;-73
2021/07/22 08:19:26;;;;;;;;;;;20.40;99.90;;;;;;6328762;28;19982;-73
2021/07/22 08:22:28;;;;;;;;;;;20.40;99.90;;;;;;6315301;28;19995;-73
2021/07/22 08:25:30;;;;;;;;;;;20.40;99.90;;;;;;6338259;28;20429;-74
2021/07/22 08:28:32;;;;;;;;;;;20.50;99.90;;;;;;6317977;28;20374;-74
2021/07/22 08:31:33;;;;;;;;;;;20.60;99.90;;;;;;6339517;28;19969;-73
2021/07/22 08:34:36;;;;;;;;;;;20.70;99.90;;;;;;6323438;28;19972;-74
2021/07/22 08:37:37;;;;;;;;;;;20.70;99.90;;;;;;6336706;28;20922;-73
2021/07/22 08:40:42;;;;;;;;;;;20.70;99.90;;;;;;6326296;28;20354;-74
2021/07/22 08:43:46;;;;;;;;;;;20.60;99.90;;;;;;6333645;28;19974;-73
2021/07/22 08:46:47;;;;;;;;;;;20.60;99.90;;;;;;6311402;28;19975;-73
2021/07/22 08:49:49;;;;;;;;;;;20.70;99.90;;;;;;6315565;28;20300;-74
2021/07/22 08:52:51;;;;;;;;;;;20.80;99.90;;;;;;6333935;28;19979;-73
2021/07/22 08:55:53;;;;;;;;;;;20.90;99.90;;;;;;6339111;28;19975;-73
2021/07/22 08:58:56;;;;;;;;;;;20.90;99.90;;;;;;6323951;28;19994;-73
2021/07/22 09:01:58;;;;;;;;;;;20.80;99.90;;;;;;6322741;28;20007;-73
2021/07/22 09:05:01;;;;;;;;;;;20.80;99.90;;;;;;6305143;28;19974;-73
2021/07/22 09:08:09;;;;;;;;;;;20.90;99.90;;;;;;6331429;28;19964;-74
2021/07/22 09:11:11;;;;;;;;;;;20.90;99.90;;;;;;6324903;28;19968;-73
2021/07/22 09:14:13;;;;;;;;;;;21.10;99.90;;;;;;6343291;28;19989;-73
2021/07/22 09:17:25;;;;;;;;;;;21.00;99.90;;;;;;6317969;28;19974;-74
2021/07/22 09:20:34;;;;;;;;;;;21.00;99.90;;;;;;6331026;28;19981;-73
2021/07/22 09:23:35;;;;;;;;;;;21.00;99.90;;;;;;6318628;28;20317;-73
2021/07/22 09:26:39;;;;;;;;;;;20.90;99.90;;;;;;6315455;28;19953;-74
2021/07/22 09:30:07;;;;;;;;;;;20.90;99.90;;;;;;6330987;28;19980;-73
2021/07/22 09:33:08;;;;;;;;;;;21.00;99.90;;;;;;6311337;28;21857;-68
2021/07/22 09:36:19;;;;;;;;;;;21.10;99.90;;;;;;6312314;28;19976;-68
2021/07/22 09:39:25;;;;;;;;;;;21.20;99.90;;;;;;6332995;28;19997;-68
2021/07/22 09:42:38;;;;;;;;;;;21.20;99.90;;;;;;6343948;28;19979;-68
2021/07/22 09:45:46;;;;;;;;;;;21.20;99.90;;;;;;6343619;28;20459;-69
2021/07/22 09:49:07;;;;;;;;;;;21.10;99.90;;;;;;6345723;28;20408;-68
2021/07/22 09:52:09;;;;;;;;;;;21.10;99.90;;;;;;6319948;28;20450;-69
2021/07/22 09:55:31;;;;;;;;;;;21.20;99.90;;;;;;6343999;28;19949;-68
2021/07/22 09:58:34;;;;;;;;;;;21.30;99.90;;;;;;6337754;28;20345;-68
2021/07/22 10:01:44;;;;;;;;;;;21.40;99.90;;;;;;6344516;28;20417;-68
2021/07/22 10:04:50;;;;;;;;;;;21.50;99.90;;;;;;6323352;28;19969;-69
2021/07/22 10:07:53;;;;;;;;;;;21.60;99.90;;;;;;6332369;28;19976;-68
2021/07/22 10:10:58;;;;;;;;;;;21.70;99.90;;;;;;6325651;28;20393;-68
2021/07/22 10:14:00;;;;;;;;;;;21.70;99.90;;;;;;6319293;28;19997;-68
2021/07/22 10:17:03;;;;;;;;;;;21.60;99.90;;;;;;6340663;28;19994;-68
2021/07/22 10:20:06;;;;;;;;;;;21.50;99.90;;;;;;6335989;28;19991;-68
2021/07/22 10:23:08;;;;;;;;;;;21.60;99.90;;;;;;6320882;28;19977;-68
2021/07/22 10:26:10;;;;;;;;;;;21.70;99.90;;;;;;6325261;28;19976;-68
2021/07/22 10:29:12;;;;;;;;;;;21.70;99.90;;;;;;6321819;28;19981;-68
2021/07/22 10:32:17;;;;;;;;;;;21.80;99.90;;;;;;6334153;28;19972;-68
2021/07/22 10:35:20;;;;;;;;;;;21.80;99.90;;;;;;6339568;28;19967;-68
2021/07/22 10:38:27;;;;;;;;;;;21.90;99.90;;;;;;6327095;28;19975;-68
2021/07/22 10:41:36;;;;;;;;;;;22.00;99.90;;;;;;6339442;28;19971;-69
2021/07/22 10:44:38;;;;;;;;;;;22.10;99.90;;;;;;6339474;28;19971;-69
2021/07/22 10:47:58;;;;;;;;;;;22.10;99.90;;;;;;6340672;28;19987;-69
2021/07/22 10:51:01;;;;;;;;;;;22.10;99.90;;;;;;6340212;28;19993;-69
2021/07/22 10:54:02;;;;;;;;;;;22.10;99.90;;;;;;6340293;28;20428;-68
2021/07/22 10:57:04;;;;;;;;;;;22.10;99.90;;;;;;6311083;28;20000;-69
2021/07/22 11:00:07;;;;;;;;;;;22.10;99.90;;;;;;6341666;28;19987;-68
2021/07/22 11:03:09;;;;;;;;;;;22.00;99.90;;;;;;6333903;28;19971;-68
2021/07/22 11:06:11;;;;;;;;;;;21.90;99.90;;;;;;6323552;28;20320;-68
2021/07/22 11:09:12;;;;;;;;;;;21.80;99.90;;;;;;6343440;28;19982;-68
2021/07/22 11:12:32;;;;;;;;;;;21.80;99.90;;;;;;6333782;28;19992;-68
2021/07/22 11:15:47;;;;;;;;;;;21.80;99.90;;;;;;6337378;28;19955;-68
2021/07/22 11:18:54;;;;;;;;;;;21.80;99.90;;;;;;6332990;28;19965;-69
2021/07/22 11:21:57;;;;;;;;;;;22.00;99.90;;;;;;6309507;28;20020;-69
2021/07/22 11:25:05;;;;;;;;;;;22.00;99.90;;;;;;6329321;28;20592;-69
2021/07/22 11:28:07;;;;;;;;;;;22.10;99.90;;;;;;6335818;28;19956;-68
2021/07/22 11:31:09;;;;;;;;;;;22.10;99.90;;;;;;6336812;28;20388;-69
2021/07/22 11:34:11;;;;;;;;;;;22.10;99.90;;;;;;6334142;28;20485;-68
2021/07/22 11:37:16;;;;;;;;;;;22.10;99.90;;;;;;6339686;28;19977;-69
2021/07/22 11:40:18;;;;;;;;;;;22.20;99.90;;;;;;6326311;28;19979;-68
2021/07/22 11:43:32;;;;;;;;;;;22.20;99.90;;;;;;6333786;28;20017;-68
2021/07/22 11:46:34;;;;;;;;;;;22.20;99.90;;;;;;6335773;28;20461;-68
2021/07/22 11:49:35;;;;;;;;;;;22.30;99.90;;;;;;6332392;28;20024;-69
2021/07/22 11:52:37;;;;;;;;;;;22.30;99.90;;;;;;6327229;28;19998;-68
2021/07/22 11:55:39;;;;;;;;;;;22.40;99.90;;;;;;6331166;28;20363;-69
2021/07/22 11:58:45;;;;;;;;;;;22.40;99.90;;;;;;6338118;28;19961;-69
2021/07/22 12:01:50;;;;;;;;;;;22.40;99.90;;;;;;6336399;28;19976;-69
2021/07/22 12:04:52;;;;;;;;;;;22.50;99.90;;;;;;6320067;28;19977;-69
2021/07/22 12:07:56;;;;;;;;;;;22.40;99.90;;;;;;6336236;28;19972;-68
2021/07/22 12:11:03;;;;;;;;;;;22.40;99.90;;;;;;6340910;28;20318;-68
2021/07/22 12:14:05;;;;;;;;;;;22.50;99.90;;;;;;6337318;28;19991;-68
2021/07/22 12:17:11;;;;;;;;;;;22.50;99.90;;;;;;6313575;28;20024;-67
2021/07/22 12:20:14;;;;;;;;;;;22.50;99.90;;;;;;6333719;28;21834;-68
2021/07/22 12:23:33;;;;;;;;;;;22.50;99.90;;;;;;6335696;28;19968;-68
2021/07/22 12:26:37;;;;;;;;;;;22.50;99.90;;;;;;6330092;28;19951;-69
2021/07/22 12:29:44;;;;;;;;;;;22.50;99.90;;;;;;6333499;28;19977;-68
2021/07/22 12:32:48;;;;;;;;;;;22.60;99.90;;;;;;6306751;28;19986;-69
2021/07/22 12:35:50;;;;;;;;;;;22.70;99.90;;;;;;6331150;28;20007;-69
2021/07/22 12:39:11;;;;;;;;;;;22.70;99.90;;;;;;6333965;28;19981;-68
2021/07/22 12:42:13;;;;;;;;;;;22.80;99.90;;;;;;6338228;28;19959;-69
2021/07/22 12:45:16;;;;;;;;;;;22.80;99.90;;;;;;6335736;28;19970;-69
2021/07/22 12:48:18;;;;;;;;;;;22.80;99.90;;;;;;6335511;28;19960;-68
2021/07/22 12:51:23;;;;;;;;;;;22.80;99.90;;;;;;6338536;28;19962;-68
2021/07/22 12:54:29;;;;;;;;;;;22.80;99.90;;;;;;6333741;28;20038;-68
2021/07/22 12:57:35;;;;;;;;;;;22.80;99.90;;;;;;6314158;28;20402;-68
2021/07/22 13:00:43;;;;;;;;;;;22.80;99.90;;;;;;6338734;28;19976;-69
2021/07/22 13:03:45;;;;;;;;;;;22.80;99.90;;;;;;6328533;28;19969;-69
2021/07/22 13:06:50;;;;;;;;;;;22.80;99.90;;;;;;6346035;28;19957;-69
2021/07/22 13:09:52;;;;;;;;;;;22.80;99.90;;;;;;6337483;28;19970;-69
2021/07/22 13:12:54;;;;;;;;;;;22.80;99.90;;;;;;6338718;28;19997;-68
2021/07/22 13:15:56;;;;;;;;;;;22.80;99.90;;;;;;6336193;28;20420;-68
2021/07/22 13:18:58;;;;;;;;;;;22.80;99.90;;;;;;6330272;28;19974;-69
2021/07/22 13:22:00;;;;;;;;;;;22.80;99.90;;;;;;6314153;28;19966;-69
2021/07/22 13:25:02;;;;;;;;;;;22.90;99.90;;;;;;6345355;28;19960;-68
2021/07/22 13:28:03;;;;;;;;;;;22.90;99.90;;;;;;6334436;28;19959;-68
2021/07/22 13:31:05;;;;;;;;;;;22.90;99.90;;;;;;6319741;28;20405;-68
2021/07/22 13:34:07;;;;;;;;;;;22.90;99.90;;;;;;6329800;28;19962;-69
2021/07/22 13:37:09;;;;;;;;;;;22.90;99.90;;;;;;6339769;28;19969;-69
2021/07/22 13:40:12;;;;;;;;;;;23.00;99.90;;;;;;6335836;28;19962;-68
2021/07/22 13:43:14;;;;;;;;;;;23.00;99.90;;;;;;6331815;28;20300;-68
2021/07/22 13:46:15;;;;;;;;;;;23.00;99.90;;;;;;6342917;28;19973;-68
2021/07/22 13:49:17;;;;;;;;;;;23.00;99.90;;;;;;6313323;28;20614;-69
2021/07/22 13:52:19;;;;;;;;;;;23.00;99.90;;;;;;6334736;28;19963;-69
2021/07/22 13:55:21;;;;;;;;;;;23.10;99.90;;;;;;6346499;28;20325;-69
2021/07/22 13:58:22;;;;;;;;;;;23.10;99.90;;;;;;6331790;28;19957;-68
2021/07/22 14:01:24;;;;;;;;;;;23.10;99.90;;;;;;6344884;28;20007;-68
2021/07/22 14:04:26;;;;;;;;;;;23.10;99.90;;;;;;6314138;28;19960;-68
2021/07/22 14:07:27;;;;;;;;;;;23.20;99.90;;;;;;6336181;28;19963;-68
2021/07/22 14:10:29;;;;;;;;;;;23.20;99.90;;;;;;6335730;28;20367;-69
2021/07/22 14:13:31;;;;;;;;;;;23.20;99.90;;;;;;6323783;28;19982;-68
2021/07/22 14:16:32;;;;;;;;;;;23.20;99.90;;;;;;6344928;28;19972;-68
2021/07/22 14:19:51;;;;;;;;;;;23.20;99.90;;;;;;6336802;28;19987;-68
2021/07/22 14:22:53;;;;;;;;;;;23.30;99.90;;;;;;6322808;28;19990;-68
2021/07/22 14:25:54;;;;;;;;;;;23.30;99.90;;;;;;6338635;28;19953;-68
2021/07/22 14:28:56;;;;;;;;;;;23.30;99.90;;;;;;6338489;28;19975;-68
2021/07/22 14:31:59;;;;;;;;;;;23.30;99.90;;;;;;6338206;28;19990;-69
2021/07/22 14:35:00;;;;;;;;;;;23.40;99.90;;;;;;6341920;28;20352;-69
2021/07/22 14:38:02;;;;;;;;;;;23.40;99.90;;;;;;6343466;28;19982;-68
2021/07/22 14:41:04;;;;;;;;;;;23.40;99.90;;;;;;6338463;28;19976;-68
2021/07/22 14:44:05;;;;;;;;;;;23.50;99.90;;;;;;6322021;28;19966;-69
2021/07/22 14:47:07;;;;;;;;;;;23.50;99.90;;;;;;6337354;28;20318;-69
2021/07/22 14:50:09;;;;;;;;;;;23.60;99.90;;;;;;6336516;28;19963;-68
2021/07/22 14:53:10;;;;;;;;;;;23.60;99.90;;;;;;6328399;28;19968;-68
2021/07/22 14:56:12;;;;;;;;;;;23.60;99.90;;;;;;6308532;28;19967;-68
2021/07/22 14:59:14;;;;;;;;;;;23.60;99.90;;;;;;6338374;28;19955;-68
2021/07/22 15:02:15;;;;;;;;;;;23.70;99.90;;;;;;6334241;28;19964;-68
2021/07/22 15:05:18;;;;;;;;;;;23.70;99.90;;;;;;6335429;28;20324;-68
2021/07/22 15:08:19;;;;;;;;;;;23.80;99.90;;;;;;6344093;28;19973;-68
2021/07/22 15:11:21;;;;;;;;;;;23.80;99.90;;;;;;6345342;28;19952;-68
2021/07/22 15:14:23;;;;;;;;;;;23.70;99.90;;;;;;6343796;28;19963;-69
2021/07/22 15:17:24;;;;;;;;;;;23.80;99.90;;;;;;6339455;28;20053;-69
2021/07/22 15:20:26;;;;;;;;;;;23.80;99.90;;;;;;6298965;28;19984;-68
2021/07/22 15:23:28;;;;;;;;;;;23.90;99.90;;;;;;6299010;28;19950;-69
2021/07/22 15:26:29;;;;;;;;;;;23.90;99.90;;;;;;6317400;27;19968;-69
2021/07/22 15:29:31;;;;;;;;;;;23.90;99.90;;;;;;6316648;28;20093;-68
2021/07/22 15:32:32;;;;;;;;;;;23.90;99.90;;;;;;6317550;28;20360;-68
2021/07/22 15:35:36;;;;;;;;;;;24.00;99.90;;;;;;6318335;27;19960;-68
2021/07/22 15:38:38;;;;;;;;;;;24.10;99.90;;;;;;6317074;28;20349;-68
2021/07/22 15:41:40;;;;;;;;;;;24.10;99.90;;;;;;6314690;28;19969;-68
2021/07/22 15:44:45;;;;;;;;;;;24.10;99.90;;;;;;6317577;28;19959;-68
2021/07/22 15:47:46;;;;;;;;;;;24.10;99.90;;;;;;6317333;28;20309;-68
2021/07/22 15:50:48;;;;;;;;;;;24.20;99.90;;;;;;6319216;27;19974;-68
2021/07/22 15:53:50;;;;;;;;;;;24.20;99.90;;;;;;6318822;28;23172;-68
2021/07/22 15:56:51;;;;;;;;;;;24.30;99.90;;;;;;6316752;28;20104;-68
2021/07/22 15:59:53;;;;;;;;;;;24.50;99.90;;;;;;6313715;28;19954;-68
2021/07/22 16:03:03;;;;;;;;;;;24.60;99.90;;;;;;6314637;27;19956;-69
2021/07/22 16:06:04;;;;;;;;;;;24.80;99.90;;;;;;6319688;27;19958;-68
2021/07/22 16:09:06;;;;;;;;;;;24.90;99.90;;;;;;6297260;28;19955;-68
2021/07/22 16:12:08;;;;;;;;;;;25.10;99.90;;;;;;6319110;27;19972;-68
2021/07/22 16:15:10;;;;;;;;;;;25.20;99.90;;;;;;6315658;27;20320;-68
2021/07/22 16:18:11;;;;;;;;;;;25.40;99.90;;;;;;6297398;28;20489;-68
2021/07/22 16:21:15;;;;;;;;;;;25.50;99.90;;;;;;6318331;28;19960;-68
2021/07/22 16:24:17;;;;;;;;;;;25.60;99.90;;;;;;6316996;28;20397;-69
2021/07/22 16:27:19;;;;;;;;;;;25.70;99.90;;;;;;6315755;28;20390;-68
2021/07/22 16:30:21;;;;;;;;;;;25.80;99.90;;;;;;6319695;28;20407;-68
2021/07/22 16:33:23;;;;;;;;;;;25.90;99.90;;;;;;6316010;28;19924;-68
2021/07/22 16:36:24;;;;;;;;;;;26.00;99.90;;;;;;6297045;28;20469;-68
2021/07/22 16:39:26;;;;;;;;;;;26.10;99.90;;;;;;6314031;28;20372;-68
2021/07/22 16:42:28;;;;;;;;;;;26.30;99.90;;;;;;6318142;28;19962;-68
2021/07/22 16:45:29;;;;;;;;;;;26.50;99.90;;;;;;6297806;28;20423;-68
2021/07/22 16:48:31;;;;;;;;;;;26.50;99.90;;;;;;6316634;28;20070;-68
2021/07/22 16:51:34;;;;;;;;;;;26.40;99.90;;;;;;6320167;28;19948;-68
2021/07/22 16:54:37;;;;;;;;;;;26.30;99.90;;;;;;6318708;28;19948;-68
2021/07/22 16:57:39;;;;;;;;;;;26.20;99.90;;;;;;6313427;28;19928;-68
2021/07/22 17:00:42;;;;;;;;;;;26.00;99.90;;;;;;6314045;28;19954;-69
2021/07/22 17:03:44;;;;;;;;;;;25.90;99.90;;;;;;6317100;28;19940;-68
2021/07/22 17:06:45;;;;;;;;;;;25.90;99.90;;;;;;6297467;28;19989;-69
2021/07/22 17:09:47;;;;;;;;;;;25.70;99.90;;;;;;6315486;28;19959;-68
2021/07/22 17:12:49;;;;;;;;;;;25.40;99.90;;;;;;6290162;28;19973;-68
2021/07/22 17:15:50;;;;;;;;;;;25.20;99.90;;;;;;6290178;28;19949;-68
2021/07/22 17:18:52;;;;;;;;;;;25.00;99.90;;;;;;6291574;28;19945;-68
2021/07/22 17:21:54;;;;;;;;;;;24.80;99.90;;;;;;6290060;28;19960;-69
2021/07/22 17:24:56;;;;;;;;;;;24.60;99.90;;;;;;6289604;28;19950;-68
2021/07/22 17:27:58;;;;;;;;;;;24.40;99.90;;;;;;6289676;28;19949;-69
2021/07/22 17:31:00;;;;;;;;;;;24.30;99.90;;;;;;6285229;28;19945;-69
2021/07/22 17:34:01;;;;;;;;;;;24.10;99.90;;;;;;6290866;28;19955;-68
2021/07/22 17:37:03;;;;;;;;;;;24.00;99.90;;;;;;6287472;28;19980;-68
2021/07/22 17:40:06;;;;;;;;;;;23.90;99.90;;;;;;6290718;28;19970;-68
2021/07/22 17:43:07;;;;;;;;;;;23.90;99.90;;;;;;6289496;28;19955;-67